Time;durP1;ratioP1;P1;durP2;ratioP2;P2;SDS_P1;SDS_P2;PMS_P1;PMS_P2;Temp;Humidity;BMP_temperature;BMP_pressure;BME280_temperature;BME280_humidity;BME280_pressure;Samples;Min_cycle;Max_cycle;Signal;HPM_P1;HPM_P2
2021/04/08 00:00:47;;;;;;;24.00;16.90;;;8.80;78.80;;;;;;5091999;28;20103;-71
2021/04/08 00:03:13;;;;;;;24.10;17.90;;;8.80;78.90;;;;;;5057343;28;20043;-71
2021/04/08 00:05:39;;;;;;;23.45;17.30;;;8.80;79.00;;;;;;5090961;28;20133;-71
2021/04/08 00:08:05;;;;;;;24.30;18.30;;;8.80;78.90;;;;;;5092040;28;20032;-72
2021/04/08 00:10:31;;;;;;;23.80;18.02;;;8.90;78.70;;;;;;5091594;28;20164;-70
2021/04/08 00:12:57;;;;;;;23.95;17.73;;;8.90;78.90;;;;;;5091819;28;20194;-70
2021/04/08 00:15:23;;;;;;;24.45;18.25;;;8.90;78.90;;;;;;5091977;28;20055;-69
2021/04/08 00:17:49;;;;;;;24.88;18.88;;;8.90;79.20;;;;;;5091953;28;20042;-69
2021/04/08 00:20:18;;;;;;;26.30;19.23;;;8.90;79.20;;;;;;5091618;28;20039;-69
2021/04/08 00:22:44;;;;;;;28.60;21.33;;;8.80;79.70;;;;;;5091578;28;20040;-71
2021/04/08 00:25:13;;;;;;;26.25;19.13;;;8.80;79.60;;;;;;5091540;28;20036;-70
2021/04/08 00:27:39;;;;;;;26.75;19.88;;;8.80;79.80;;;;;;5091800;28;20500;-70
2021/04/08 00:30:05;;;;;;;24.08;18.98;;;8.80;80.10;;;;;;5091846;28;20050;-71
2021/04/08 00:32:31;;;;;;;24.10;18.77;;;8.80;79.90;;;;;;5073552;28;20040;-69
2021/04/08 00:34:57;;;;;;;28.35;20.77;;;8.80;80.00;;;;;;5091537;28;20040;-70
2021/04/08 00:37:23;;;;;;;30.63;20.88;;;8.80;80.40;;;;;;5091608;28;20066;-71
2021/04/08 00:39:49;;;;;;;23.58;17.80;;;8.70;80.60;;;;;;5073888;28;20036;-71
2021/04/08 00:42:15;;;;;;;26.33;19.33;;;8.80;80.30;;;;;;5091798;28;20071;-71
2021/04/08 00:44:42;;;;;;;24.83;19.20;;;8.80;80.30;;;;;;5100001;28;20195;-70
2021/04/08 00:47:09;;;;;;;22.98;17.63;;;8.80;80.10;;;;;;5078661;28;20388;-69
2021/04/08 00:49:35;;;;;;;22.48;17.88;;;8.80;80.30;;;;;;5091302;28;20035;-71
2021/04/08 00:52:01;;;;;;;22.65;17.20;;;8.70;80.40;;;;;;5091398;28;20445;-73
2021/04/08 00:54:28;;;;;;;20.88;16.63;;;8.80;80.00;;;;;;5073374;28;20036;-71
2021/04/08 00:56:54;;;;;;;21.98;17.13;;;8.70;80.30;;;;;;5040224;28;20130;-71
2021/04/08 00:59:20;;;;;;;21.05;16.05;;;8.70;80.40;;;;;;5091777;28;20032;-73
2021/04/08 01:01:47;;;;;;;18.98;15.38;;;8.60;80.30;;;;;;5091465;28;20060;-71
2021/04/08 01:04:13;;;;;;;18.42;15.05;;;8.70;80.10;;;;;;5091223;28;20074;-71
2021/04/08 01:06:39;;;;;;;19.23;15.18;;;8.70;80.00;;;;;;5091435;28;20055;-72
2021/04/08 01:09:05;;;;;;;19.88;14.65;;;8.70;80.00;;;;;;5073291;28;20079;-69
2021/04/08 01:11:31;;;;;;;17.35;14.13;;;8.70;80.10;;;;;;5073443;28;20042;-70
2021/04/08 01:13:57;;;;;;;17.65;13.98;;;8.60;80.10;;;;;;5091059;28;20036;-71
2021/04/08 01:16:36;;;;;;;17.65;13.95;;;8.70;80.00;;;;;;5091285;28;20165;-70
2021/04/08 01:19:12;;;;;;;18.30;13.52;;;8.70;79.80;;;;;;5073334;28;20036;-71
2021/04/08 01:21:48;;;;;;;17.77;13.52;;;8.80;79.70;;;;;;5091502;28;20048;-70
2021/04/08 01:24:47;;;;;;;17.63;13.20;;;8.80;79.40;;;;;;5095309;28;20032;-70
2021/04/08 01:27:32;;;;;;;15.45;12.15;;;8.80;79.60;;;;;;5111156;28;20051;-70
2021/04/08 01:30:15;;;;;;;15.32;12.20;;;8.80;79.50;;;;;;5095461;28;20525;-70
2021/04/08 01:32:46;;;;;;;16.98;12.80;;;8.80;79.40;;;;;;5095185;28;20074;-70
2021/04/08 01:35:13;;;;;;;17.63;13.68;;;8.80;79.40;;;;;;5095035;28;20032;-70
2021/04/08 01:37:56;;;;;;;14.95;12.32;;;8.80;79.20;;;;;;5076711;28;20492;-70
2021/04/08 01:40:24;;;;;;;15.60;12.30;;;8.80;79.50;;;;;;5094630;28;20136;-70
2021/04/08 01:42:53;;;;;;;15.02;11.73;;;8.80;79.50;;;;;;5077225;28;20084;-71
2021/04/08 01:45:21;;;;;;;15.43;12.30;;;8.80;79.70;;;;;;5083116;28;20024;-70
2021/04/08 01:47:47;;;;;;;15.93;12.23;;;8.80;79.60;;;;;;5084463;28;20089;-70
2021/04/08 01:50:14;;;;;;;14.05;11.52;;;8.80;79.60;;;;;;5095152;28;20044;-70
2021/04/08 01:52:42;;;;;;;14.40;10.95;;;8.80;79.90;;;;;;5094576;28;20455;-71
2021/04/08 01:55:09;;;;;;;15.45;11.63;;;8.70;79.90;;;;;;5076693;28;20115;-69
2021/04/08 01:57:37;;;;;;;14.95;11.57;;;8.70;80.20;;;;;;5094665;28;20032;-69
2021/04/08 02:00:07;;;;;;;13.20;10.95;;;8.70;80.40;;;;;;5059727;28;20056;-70
2021/04/08 02:02:34;;;;;;;14.32;11.02;;;8.70;80.00;;;;;;5077012;28;20036;-70
2021/04/08 02:05:01;;;;;;;15.18;11.95;;;8.80;80.20;;;;;;5076344;28;20102;-71
2021/04/08 02:07:27;;;;;;;17.52;12.68;;;8.70;80.20;;;;;;5059531;28;20032;-70
2021/04/08 02:09:54;;;;;;;16.10;12.15;;;8.80;79.90;;;;;;5076193;28;20522;-69
2021/04/08 02:12:20;;;;;;;15.65;12.50;;;8.70;80.50;;;;;;5094715;28;20426;-70
2021/04/08 02:14:47;;;;;;;15.68;12.85;;;8.80;80.30;;;;;;5110355;28;20024;-70
2021/04/08 02:17:16;;;;;;;17.35;13.35;;;8.70;80.10;;;;;;5077835;28;20036;-70
2021/04/08 02:19:45;;;;;;;16.92;12.43;;;8.80;80.10;;;;;;5098192;28;20522;-69
2021/04/08 02:22:11;;;;;;;14.98;12.07;;;8.80;80.20;;;;;;5094270;28;20068;-70
2021/04/08 02:24:38;;;;;;;18.65;13.68;;;8.70;80.30;;;;;;5093948;28;20050;-71
2021/04/08 02:27:05;;;;;;;18.48;13.77;;;8.70;80.90;;;;;;5093926;28;20379;-71
2021/04/08 02:29:32;;;;;;;17.63;12.93;;;8.60;81.00;;;;;;5089949;28;20052;-70
2021/04/08 02:32:01;;;;;;;18.27;13.68;;;8.60;81.20;;;;;;5079299;28;20553;-70
2021/04/08 02:34:28;;;;;;;15.52;12.68;;;8.50;81.50;;;;;;5095691;28;20070;-70
2021/04/08 02:36:54;;;;;;;20.73;13.65;;;8.60;81.00;;;;;;5079234;28;20071;-71
2021/04/08 02:39:20;;;;;;;18.42;13.05;;;8.60;80.90;;;;;;5104817;28;20433;-70
2021/04/08 02:41:47;;;;;;;18.85;14.05;;;8.60;81.10;;;;;;5097750;28;20073;-70
2021/04/08 02:44:15;;;;;;;20.50;13.70;;;8.60;80.90;;;;;;5093455;28;20029;-70
2021/04/08 02:46:41;;;;;;;18.15;13.52;;;8.60;80.60;;;;;;5109294;28;20542;-70
2021/04/08 02:49:08;;;;;;;19.13;14.13;;;8.70;80.50;;;;;;5093378;28;20057;-71
2021/04/08 02:51:47;;;;;;;19.00;14.00;;;8.70;80.40;;;;;;5109477;28;20089;-68
2021/04/08 02:54:37;;;;;;;19.17;13.80;;;8.80;80.10;;;;;;5092342;28;20163;-70
2021/04/08 02:57:05;;;;;;;18.60;13.93;;;8.80;80.00;;;;;;5109074;28;20040;-69
2021/04/08 02:59:44;;;;;;;22.50;14.70;;;8.70;79.90;;;;;;5093255;28;20040;-72
2021/04/08 03:02:16;;;;;;;20.65;14.80;;;8.80;79.90;;;;;;5093798;28;20090;-70
2021/04/08 03:04:47;;;;;;;19.45;14.40;;;8.80;79.90;;;;;;5075632;28;20039;-69
2021/04/08 03:07:17;;;;;;;18.88;13.55;;;8.70;80.00;;;;;;5099471;28;20043;-69
2021/04/08 03:09:44;;;;;;;20.05;14.35;;;8.80;80.00;;;;;;5082131;28;20134;-69
2021/04/08 03:12:14;;;;;;;21.45;14.27;;;8.80;80.00;;;;;;5074901;28;20050;-70
2021/04/08 03:14:44;;;;;;;20.30;14.68;;;8.80;79.80;;;;;;5108950;28;20032;-71
2021/04/08 03:17:13;;;;;;;20.33;15.05;;;8.80;79.70;;;;;;5100558;28;20046;-72
2021/04/08 03:19:40;;;;;;;22.05;15.02;;;8.80;80.00;;;;;;5098992;28;20036;-68
2021/04/08 03:22:08;;;;;;;20.60;14.60;;;8.80;79.60;;;;;;5099984;28;20035;-70
2021/04/08 03:24:36;;;;;;;23.85;16.50;;;8.80;79.60;;;;;;5098099;28;20028;-70
2021/04/08 03:27:04;;;;;;;21.45;15.90;;;8.80;79.60;;;;;;5097390;28;20040;-70
2021/04/08 03:29:31;;;;;;;25.60;17.52;;;8.90;79.40;;;;;;5101648;28;20032;-70
2021/04/08 03:31:58;;;;;;;23.80;16.58;;;8.80;79.60;;;;;;5074558;28;20071;-72
2021/04/08 03:34:24;;;;;;;25.65;17.23;;;8.80;79.90;;;;;;5092468;28;20070;-71
2021/04/08 03:36:51;;;;;;;22.90;16.20;;;8.80;79.80;;;;;;5092706;28;20397;-71
2021/04/08 03:39:17;;;;;;;25.17;16.88;;;8.80;79.60;;;;;;5092504;28;20046;-69
2021/04/08 03:41:44;;;;;;;23.15;16.25;;;8.90;79.60;;;;;;5092739;28;20411;-69
2021/04/08 03:44:15;;;;;;;28.33;17.48;;;8.80;80.50;;;;;;5107651;28;20044;-69
2021/04/08 03:46:44;;;;;;;23.65;15.73;;;8.80;80.00;;;;;;5092396;28;20032;-68
2021/04/08 03:49:12;;;;;;;28.15;17.33;;;8.80;80.10;;;;;;5091169;28;20485;-70
2021/04/08 03:51:40;;;;;;;27.27;17.23;;;8.80;80.00;;;;;;5107807;28;20066;-70
2021/04/08 03:54:12;;;;;;;24.88;16.60;;;8.80;79.80;;;;;;5091756;28;20047;-73
2021/04/08 03:56:42;;;;;;;26.63;16.88;;;8.80;80.10;;;;;;5107889;28;20039;-70
2021/04/08 03:59:09;;;;;;;26.75;15.93;;;8.80;80.40;;;;;;5091773;28;20028;-70
2021/04/08 04:01:38;;;;;;;29.80;16.63;;;8.70;80.50;;;;;;5091742;28;20561;-67
2021/04/08 04:04:09;;;;;;;30.33;17.27;;;8.80;80.50;;;;;;5078337;28;20048;-67
2021/04/08 04:06:36;;;;;;;28.50;17.75;;;8.80;80.80;;;;;;5101183;28;20396;-68
2021/04/08 04:09:04;;;;;;;26.48;16.33;;;8.80;80.60;;;;;;5096783;28;20491;-69
2021/04/08 04:11:37;;;;;;;24.85;15.32;;;8.80;80.40;;;;;;5100329;28;20094;-69
2021/04/08 04:14:06;;;;;;;25.20;14.70;;;8.80;80.00;;;;;;5103316;28;20150;-69
2021/04/08 04:16:36;;;;;;;20.02;12.32;;;8.70;80.30;;;;;;5099409;28;20556;-72
2021/04/08 04:19:02;;;;;;;17.48;11.55;;;8.80;79.90;;;;;;5106526;27;20073;-79
2021/04/08 04:21:30;;;;;;;18.23;11.60;;;8.70;79.70;;;;;;5111309;28;20043;-76
2021/04/08 04:23:56;;;;;;;17.05;10.27;;;8.80;79.90;;;;;;5110787;28;20744;-78
2021/04/08 04:26:22;;;;;;;14.90;9.48;;;8.80;80.00;;;;;;5111701;28;20118;-74
2021/04/08 04:28:48;;;;;;;11.90;8.77;;;8.80;79.80;;;;;;5112866;28;20035;-76
2021/04/08 04:31:14;;;;;;;13.90;8.93;;;8.70;79.70;;;;;;5108561;28;20552;-75
2021/04/08 04:33:40;;;;;;;13.73;8.75;;;8.70;79.80;;;;;;5104274;28;20036;-76
2021/04/08 04:36:09;;;;;;;11.88;8.15;;;8.70;79.60;;;;;;5098560;28;20109;-80
2021/04/08 04:38:35;;;;;;;12.30;8.05;;;8.80;79.70;;;;;;5082950;28;20039;-77
2021/04/08 04:41:03;;;;;;;12.20;8.75;;;8.80;79.60;;;;;;5092988;28;20070;-76
2021/04/08 04:43:29;;;;;;;11.77;8.20;;;8.70;79.80;;;;;;5100703;28;20392;-76
2021/04/08 04:45:55;;;;;;;10.65;7.28;;;8.70;79.60;;;;;;5113211;28;20042;-75
2021/04/08 04:48:21;;;;;;;9.68;7.25;;;8.60;79.60;;;;;;5094397;28;20042;-75
2021/04/08 04:50:47;;;;;;;10.77;7.30;;;8.60;79.30;;;;;;5113106;28;20045;-75
2021/04/08 04:53:13;;;;;;;10.57;7.22;;;8.70;79.10;;;;;;5113056;28;20027;-76
2021/04/08 04:55:39;;;;;;;9.80;7.20;;;8.70;79.10;;;;;;5097828;28;20044;-78
2021/04/08 04:58:05;;;;;;;9.45;6.88;;;8.70;79.10;;;;;;5113094;28;20511;-82
2021/04/08 05:00:31;;;;;;;11.10;7.65;;;8.70;79.10;;;;;;5112902;28;20507;-72
2021/04/08 05:02:57;;;;;;;9.40;7.20;;;8.60;79.10;;;;;;5113071;28;20043;-76
2021/04/08 05:05:23;;;;;;;12.18;7.63;;;8.60;79.70;;;;;;5100936;28;20075;-75
2021/04/08 05:07:52;;;;;;;9.10;7.00;;;8.60;80.10;;;;;;5090748;28;20023;-80
2021/04/08 05:10:17;;;;;;;12.25;7.95;;;8.50;79.60;;;;;;5094793;28;20037;-81
2021/04/08 05:12:44;;;;;;;10.80;7.85;;;8.50;79.90;;;;;;5113644;28;20478;-84
2021/04/08 05:15:10;;;;;;;9.32;6.47;;;8.50;79.90;;;;;;5112913;28;20044;-80
2021/04/08 05:17:36;;;;;;;8.10;5.63;;;8.30;81.30;;;;;;5112798;28;20073;-81
2021/04/08 05:20:03;;;;;;;7.90;5.88;;;8.20;82.80;;;;;;5113226;28;20043;-80
2021/04/08 05:22:29;;;;;;;11.63;7.57;;;8.10;83.30;;;;;;5094538;28;20039;-82
2021/04/08 05:24:55;;;;;;;10.52;6.05;;;8.40;86.50;;;;;;5113241;28;20054;-83
2021/04/08 05:27:21;;;;;;;12.13;6.65;;;8.80;90.00;;;;;;5113272;28;20147;-83
2021/04/08 05:29:47;;;;;;;10.70;6.50;;;9.10;89.50;;;;;;5113101;28;20077;-82
2021/04/08 05:32:13;;;;;;;9.73;6.22;;;9.30;88.80;;;;;;5094525;28;20468;-82
2021/04/08 05:34:39;;;;;;;10.13;5.82;;;9.50;87.40;;;;;;5113063;28;20545;-82
2021/04/08 05:37:05;;;;;;;8.73;5.60;;;9.70;85.70;;;;;;5095027;28;20036;-81
2021/04/08 05:39:30;;;;;;;6.60;4.80;;;9.90;84.80;;;;;;5094373;28;20035;-83
2021/04/08 05:41:57;;;;;;;6.40;4.95;;;10.10;83.80;;;;;;5094522;28;20039;-80
2021/04/08 05:44:23;;;;;;;5.88;4.68;;;10.10;82.10;;;;;;5113208;28;20480;-77
2021/04/08 05:46:49;;;;;;;8.30;4.82;;;10.30;82.10;;;;;;5112213;28;20042;-71
2021/04/08 05:49:15;;;;;;;6.82;5.13;;;10.30;79.50;;;;;;5094688;28;20035;-74
2021/04/08 05:51:41;;;;;;;8.20;5.68;;;10.30;77.90;;;;;;5112354;28;20044;-74
2021/04/08 05:54:07;;;;;;;6.57;4.90;;;10.30;76.20;;;;;;5094587;28;20035;-75
2021/04/08 05:56:34;;;;;;;7.55;5.28;;;10.20;76.20;;;;;;5094330;28;20054;-72
2021/04/08 05:59:00;;;;;;;7.45;4.93;;;10.10;76.10;;;;;;5112363;28;20031;-72
2021/04/08 06:01:26;;;;;;;5.90;5.30;;;10.00;75.50;;;;;;5112647;28;20047;-75
2021/04/08 06:03:55;;;;;;;7.93;5.28;;;10.00;75.30;;;;;;5094175;28;20036;-73
2021/04/08 06:06:22;;;;;;;6.15;5.03;;;9.90;75.00;;;;;;5112100;28;20039;-73
2021/04/08 06:08:48;;;;;;;5.72;4.65;;;9.80;75.80;;;;;;5114573;28;20039;-71
2021/04/08 06:11:15;;;;;;;6.78;5.05;;;9.80;75.10;;;;;;5116117;28;20517;-75
2021/04/08 06:13:41;;;;;;;6.78;4.93;;;9.70;75.00;;;;;;5080815;28;20080;-71
2021/04/08 06:16:08;;;;;;;5.53;4.93;;;9.60;75.20;;;;;;5097738;28;20555;-73
2021/04/08 06:18:34;;;;;;;8.10;5.88;;;9.60;75.30;;;;;;5115730;28;20027;-71
2021/04/08 06:21:00;;;;;;;6.07;5.18;;;9.50;75.70;;;;;;5116208;28;20135;-71
2021/04/08 06:23:26;;;;;;;8.60;7.15;;;9.40;76.50;;;;;;5116014;28;20483;-74
2021/04/08 06:25:52;;;;;;;8.10;6.80;;;9.40;76.90;;;;;;5115925;28;20514;-75
2021/04/08 06:28:18;;;;;;;7.60;6.10;;;9.30;77.10;;;;;;5115824;28;20057;-74
2021/04/08 06:30:45;;;;;;;6.60;5.50;;;9.20;77.60;;;;;;5115708;28;20050;-75
2021/04/08 06:33:12;;;;;;;9.80;6.53;;;9.20;78.60;;;;;;5097457;28;20500;-71
2021/04/08 06:35:39;;;;;;;6.65;5.68;;;9.10;78.20;;;;;;5115544;28;20035;-72
2021/04/08 06:38:05;;;;;;;10.43;6.45;;;9.00;78.40;;;;;;5097482;28;20043;-73
2021/04/08 06:40:31;;;;;;;5.97;4.55;;;9.00;78.70;;;;;;5080499;28;20039;-72
2021/04/08 06:42:59;;;;;;;6.88;6.05;;;9.00;78.30;;;;;;5097160;28;20043;-72
2021/04/08 06:45:29;;;;;;;8.45;5.22;;;9.00;78.50;;;;;;5080325;28;20487;-72
2021/04/08 06:48:20;;;;;;;8.77;5.43;;;9.00;78.10;;;;;;5097206;28;20124;-71
2021/04/08 06:50:49;;;;;;;7.03;5.43;;;9.00;78.40;;;;;;5097306;28;20496;-73
2021/04/08 06:53:15;;;;;;;7.13;5.05;;;8.90;78.30;;;;;;5115315;28;20030;-75
2021/04/08 06:55:42;;;;;;;5.82;4.70;;;8.90;78.40;;;;;;5115219;28;20036;-71
2021/04/08 06:58:10;;;;;;;5.78;5.00;;;8.90;78.50;;;;;;5097008;28;20081;-75
2021/04/08 07:00:37;;;;;;;6.43;5.70;;;8.80;77.80;;;;;;5096994;28;20052;-75
2021/04/08 07:03:08;;;;;;;6.00;5.40;;;8.70;77.50;;;;;;5080281;28;20104;-76
2021/04/08 07:05:34;;;;;;;6.55;5.57;;;8.70;77.20;;;;;;5096661;28;20042;-77
2021/04/08 07:08:00;;;;;;;8.43;5.93;;;8.70;76.40;;;;;;5115034;28;20484;-76
2021/04/08 07:10:27;;;;;;;7.03;6.32;;;8.70;76.10;;;;;;5114833;28;20123;-70
2021/04/08 07:12:53;;;;;;;7.65;6.15;;;8.60;75.80;;;;;;5097142;28;20438;-71
2021/04/08 07:15:21;;;;;;;7.55;6.20;;;8.60;76.90;;;;;;5114799;28;20043;-71
2021/04/08 07:17:47;;;;;;;7.75;5.82;;;8.50;76.40;;;;;;5114825;28;20404;-71
2021/04/08 07:20:13;;;;;;;6.38;5.05;;;8.50;75.60;;;;;;5114629;28;20135;-71
2021/04/08 07:22:39;;;;;;;5.88;5.05;;;8.40;76.70;;;;;;5114766;28;20123;-71
2021/04/08 07:25:17;;;;;;;7.97;4.97;;;8.50;76.00;;;;;;5114366;28;20118;-71
2021/04/08 07:27:43;;;;;;;5.22;4.32;;;8.50;75.50;;;;;;5114777;28;20039;-72
2021/04/08 07:30:10;;;;;;;5.03;3.55;;;8.50;75.00;;;;;;5096455;28;20066;-71
2021/04/08 07:32:39;;;;;;;3.67;3.13;;;8.50;74.80;;;;;;5096149;28;20043;-69
2021/04/08 07:35:18;;;;;;;2.85;2.65;;;8.50;74.90;;;;;;5114495;28;20035;-72
2021/04/08 07:37:55;;;;;;;2.80;2.50;;;8.50;75.10;;;;;;5114164;28;20047;-71
2021/04/08 07:40:24;;;;;;;2.70;2.47;;;8.60;74.80;;;;;;5114585;28;20496;-71
2021/04/08 07:42:50;;;;;;;2.25;2.05;;;8.60;74.50;;;;;;5114607;28;20043;-72
2021/04/08 07:45:37;;;;;;;1.65;1.55;;;8.60;74.70;;;;;;5113990;28;20034;-72
2021/04/08 07:48:06;;;;;;;2.67;1.70;;;8.60;74.60;;;;;;5114154;28;20071;-72
2021/04/08 07:50:37;;;;;;;2.00;1.25;;;8.70;74.10;;;;;;5096317;28;20134;-72
2021/04/08 07:53:03;;;;;;;2.67;0.90;;;8.80;73.60;;;;;;5096350;28;20044;-73
2021/04/08 07:55:29;;;;;;;2.25;1.08;;;8.90;73.20;;;;;;5096293;28;20495;-72
2021/04/08 07:58:16;;;;;;;1.10;0.80;;;8.90;72.70;;;;;;5113873;28;20035;-72
2021/04/08 08:00:49;;;;;;;0.68;0.60;;;9.00;72.30;;;;;;5095488;28;20073;-71
2021/04/08 08:03:25;;;;;;;0.60;0.60;;;9.10;71.80;;;;;;5114027;28;20035;-72
2021/04/08 08:05:58;;;;;;;1.73;0.80;;;9.20;71.60;;;;;;5114117;28;20422;-72
2021/04/08 08:08:34;;;;;;;0.52;0.52;;;9.20;71.30;;;;;;5114593;28;20043;-72
2021/04/08 08:11:09;;;;;;;1.58;0.50;;;9.30;71.10;;;;;;5114687;28;20042;-74
2021/04/08 08:13:38;;;;;;;0.45;0.45;;;9.40;70.70;;;;;;5097151;28;20088;-72
2021/04/08 08:16:05;;;;;;;0.50;0.50;;;9.40;70.60;;;;;;5079825;28;20040;-73
2021/04/08 08:18:35;;;;;;;1.23;0.50;;;9.50;70.20;;;;;;5096798;28;20042;-71
2021/04/08 08:21:12;;;;;;;1.02;0.40;;;9.50;69.90;;;;;;5114310;28;20055;-72
2021/04/08 08:23:45;;;;;;;0.50;0.30;;;9.60;69.60;;;;;;5114594;28;20035;-74
2021/04/08 08:26:30;;;;;;;0.63;0.38;;;9.50;69.50;;;;;;5096077;28;20420;-72
2021/04/08 08:28:59;;;;;;;0.77;0.52;;;9.60;69.60;;;;;;5096719;28;20044;-73
2021/04/08 08:31:44;;;;;;;1.88;0.55;;;9.60;68.60;;;;;;5113969;28;20058;-72
2021/04/08 08:34:19;;;;;;;2.08;0.60;;;9.70;68.60;;;;;;5114833;28;20050;-72
2021/04/08 08:36:48;;;;;;;0.60;0.60;;;9.70;68.50;;;;;;5114911;28;20548;-73
2021/04/08 08:39:18;;;;;;;0.63;0.40;;;9.70;68.20;;;;;;5096327;28;20035;-73
2021/04/08 08:41:45;;;;;;;1.17;0.40;;;9.70;68.30;;;;;;5115360;28;20055;-72
2021/04/08 08:44:13;;;;;;;0.98;0.30;;;9.70;68.20;;;;;;5114969;28;20122;-72
2021/04/08 08:47:02;;;;;;;0.80;0.28;;;9.70;68.10;;;;;;5096698;28;20039;-73
2021/04/08 08:49:52;;;;;;;1.35;0.47;;;9.70;67.90;;;;;;5114002;28;20039;-72
2021/04/08 08:52:29;;;;;;;0.40;0.40;;;9.60;68.20;;;;;;5113659;28;20488;-72
2021/04/08 08:54:55;;;;;;;0.40;0.40;;;9.60;67.80;;;;;;5114577;28;20050;-73
2021/04/08 08:57:22;;;;;;;0.70;0.60;;;9.70;67.70;;;;;;5114160;28;20042;-72
2021/04/08 08:59:49;;;;;;;0.47;0.35;;;9.70;67.40;;;;;;5114433;28;20139;-74
2021/04/08 09:02:16;;;;;;;0.77;0.47;;;9.70;67.50;;;;;;5096666;28;20038;-75
2021/04/08 09:04:42;;;;;;;0.68;0.50;;;9.70;67.50;;;;;;5079639;28;20042;-76
2021/04/08 09:07:12;;;;;;;0.43;0.43;;;9.60;67.40;;;;;;5113374;28;20030;-76
2021/04/08 09:09:45;;;;;;;0.88;0.50;;;9.60;67.20;;;;;;5094709;28;20404;-75
2021/04/08 09:12:17;;;;;;;1.05;0.30;;;9.60;67.20;;;;;;5113221;28;20510;-76
2021/04/08 09:14:45;;;;;;;0.80;0.65;;;9.60;66.90;;;;;;5094861;28;20039;-74
2021/04/08 09:17:11;;;;;;;1.00;0.63;;;9.50;67.20;;;;;;5094728;28;20035;-73
2021/04/08 09:19:38;;;;;;;0.90;0.50;;;9.50;67.30;;;;;;5112960;28;20031;-74
2021/04/08 09:22:09;;;;;;;0.60;0.45;;;9.40;67.80;;;;;;5112860;28;20059;-75
2021/04/08 09:24:39;;;;;;;0.98;0.70;;;9.30;67.90;;;;;;5078231;28;20031;-75
2021/04/08 09:27:07;;;;;;;0.60;0.57;;;9.30;68.20;;;;;;5094506;28;20036;-73
2021/04/08 09:29:37;;;;;;;1.50;0.80;;;9.20;68.90;;;;;;5094543;28;20035;-71
2021/04/08 09:32:23;;;;;;;0.68;0.68;;;9.30;69.10;;;;;;5112587;28;20067;-75
2021/04/08 09:35:07;;;;;;;;;;;9.20;69.30;;;;;;5113366;28;20043;-75
2021/04/08 09:37:48;;;;;;;0.60;0.43;;;9.10;70.90;;;;;;5113143;28;20359;-74
2021/04/08 09:40:37;;;;;;;0.63;0.60;;;9.10;70.40;;;;;;5112736;28;20048;-76
2021/04/08 09:43:09;;;;;;;1.40;0.60;;;9.10;70.30;;;;;;5113804;28;20032;-75
2021/04/08 09:45:41;;;;;;;0.60;0.60;;;9.10;69.80;;;;;;5117407;28;20035;-73
2021/04/08 09:48:17;;;;;;;1.33;0.40;;;9.00;70.40;;;;;;5116952;28;20039;-73
2021/04/08 09:50:59;;;;;;;0.88;0.70;;;9.00;71.50;;;;;;5116615;28;20027;-73
2021/04/08 09:53:37;;;;;;;0.73;0.50;;;9.00;71.20;;;;;;5098322;28;20072;-76
2021/04/08 09:56:05;;;;;;;1.15;0.85;;;9.00;71.30;;;;;;5116926;28;20391;-75
2021/04/08 09:58:33;;;;;;;1.60;0.85;;;9.00;71.10;;;;;;5116218;28;20036;-74
2021/04/08 10:01:05;;;;;;;0.77;0.70;;;8.90;70.30;;;;;;5116271;28;20056;-74
2021/04/08 10:03:35;;;;;;;1.73;0.68;;;9.00;71.00;;;;;;5116300;28;20032;-74
2021/04/08 10:06:17;;;;;;;1.13;0.68;;;9.00;71.30;;;;;;5116113;28;20126;-78
2021/04/08 10:08:43;;;;;;;0.77;0.60;;;9.00;72.30;;;;;;5116499;28;20039;-73
2021/04/08 10:11:11;;;;;;;2.55;0.75;;;9.00;72.00;;;;;;5115917;28;20043;-72
2021/04/08 10:13:40;;;;;;;1.77;0.50;;;9.10;71.80;;;;;;5097681;28;20499;-71
2021/04/08 10:16:16;;;;;;;0.88;0.60;;;9.10;71.90;;;;;;5097404;28;20477;-71
2021/04/08 10:18:44;;;;;;;0.98;0.60;;;9.10;72.00;;;;;;5115693;28;20067;-73
2021/04/08 10:21:13;;;;;;;2.05;0.55;;;9.10;72.00;;;;;;5115982;28;20071;-71
2021/04/08 10:23:40;;;;;;;0.80;0.60;;;9.20;71.70;;;;;;5115762;28;20031;-70
2021/04/08 10:26:08;;;;;;;1.83;1.00;;;9.20;72.40;;;;;;5097468;28;20138;-72
2021/04/08 10:28:41;;;;;;;3.13;0.77;;;9.20;73.20;;;;;;5097653;28;20114;-72
2021/04/08 10:31:19;;;;;;;1.70;0.65;;;9.30;73.20;;;;;;5097068;28;20039;-72
2021/04/08 10:33:46;;;;;;;2.30;0.80;;;9.30;73.50;;;;;;5115442;28;20124;-73
2021/04/08 10:36:29;;;;;;;2.08;0.77;;;9.20;73.90;;;;;;5115583;28;20024;-72
2021/04/08 10:39:10;;;;;;;1.13;0.88;;;9.30;74.20;;;;;;5115490;28;20119;-73
2021/04/08 10:41:36;;;;;;;1.45;0.80;;;9.30;73.70;;;;;;5115153;28;20059;-74
2021/04/08 10:44:28;;;;;;;1.00;0.90;;;9.30;73.30;;;;;;5115544;28;20043;-74
2021/04/08 10:46:56;;;;;;;6.10;0.80;;;9.40;73.30;;;;;;5115240;28;20035;-75
2021/04/08 10:49:31;;;;;;;1.13;0.82;;;9.40;72.70;;;;;;5096906;28;20039;-71
2021/04/08 10:52:06;;;;;;;2.45;0.70;;;9.40;72.00;;;;;;5115334;28;20035;-72
2021/04/08 10:54:33;;;;;;;0.80;0.70;;;9.40;71.60;;;;;;5115031;28;20130;-71
2021/04/08 10:57:01;;;;;;;2.03;0.80;;;9.50;70.80;;;;;;5096818;28;20059;-71
2021/04/08 10:59:28;;;;;;;1.35;0.80;;;9.50;69.80;;;;;;5114819;28;20038;-72
2021/04/08 11:01:55;;;;;;;0.82;0.75;;;9.50;69.40;;;;;;5096918;28;20108;-72
2021/04/08 11:04:22;;;;;;;1.58;1.30;;;9.50;69.10;;;;;;5115178;28;20100;-73
2021/04/08 11:06:50;;;;;;;2.92;0.90;;;9.40;68.70;;;;;;5114608;28;20115;-72
2021/04/08 11:09:24;;;;;;;1.25;0.90;;;9.40;68.50;;;;;;5115347;28;20063;-72
2021/04/08 11:11:51;;;;;;;2.45;1.08;;;9.40;68.10;;;;;;5115523;28;20544;-71
2021/04/08 11:14:21;;;;;;;1.90;1.25;;;9.40;68.00;;;;;;5115213;28;20034;-72
2021/04/08 11:16:49;;;;;;;3.78;1.27;;;9.40;67.80;;;;;;5096393;28;20131;-72
2021/04/08 11:19:16;;;;;;;1.73;1.15;;;9.30;67.40;;;;;;5114626;28;20028;-73
2021/04/08 11:21:42;;;;;;;1.40;1.10;;;9.30;67.50;;;;;;5114780;28;20039;-74
2021/04/08 11:24:08;;;;;;;3.08;1.42;;;9.30;67.30;;;;;;5114997;28;20040;-72
2021/04/08 11:26:49;;;;;;;2.00;0.95;;;9.30;67.50;;;;;;5096243;28;20080;-72
2021/04/08 11:29:28;;;;;;;3.15;1.48;;;9.30;67.30;;;;;;5096511;28;20043;-72
2021/04/08 11:32:03;;;;;;;1.02;0.93;;;9.30;66.90;;;;;;5096203;28;20447;-73
2021/04/08 11:34:47;;;;;;;1.95;1.30;;;9.30;66.60;;;;;;5096740;28;20533;-71
2021/04/08 11:37:15;;;;;;;4.63;1.20;;;9.20;66.70;;;;;;5114659;28;20027;-73
2021/04/08 11:39:46;;;;;;;2.63;1.30;;;9.20;66.50;;;;;;5114530;28;20035;-75
2021/04/08 11:42:15;;;;;;;3.67;1.63;;;9.20;66.40;;;;;;5096154;28;20078;-72
2021/04/08 11:44:42;;;;;;;3.78;1.30;;;9.20;66.20;;;;;;5114209;28;20608;-76
2021/04/08 11:47:34;;;;;;;3.42;1.55;;;9.30;66.40;;;;;;5114649;28;20035;-75
2021/04/08 11:50:00;;;;;;;3.05;1.38;;;9.40;66.20;;;;;;5109965;28;20048;-76
2021/04/08 11:52:26;;;;;;;1.90;1.20;;;9.40;66.00;;;;;;5114563;28;20036;-76
2021/04/08 11:55:12;;;;;;;5.35;1.40;;;9.50;65.60;;;;;;5095760;28;20035;-75
2021/04/08 11:57:38;;;;;;;3.70;1.70;;;9.50;66.10;;;;;;5113744;28;20104;-76
2021/04/08 12:00:13;;;;;;;2.53;1.40;;;9.50;65.20;;;;;;5114292;28;20055;-76
2021/04/08 12:02:40;;;;;;;2.47;1.25;;;9.50;64.80;;;;;;5114194;28;20043;-76
2021/04/08 12:05:11;;;;;;;2.28;1.60;;;9.50;64.50;;;;;;5094996;28;20043;-74
2021/04/08 12:07:55;;;;;;;4.10;1.67;;;9.50;64.20;;;;;;5113798;28;20387;-75
2021/04/08 12:10:27;;;;;;;4.70;2.15;;;9.50;63.60;;;;;;5095679;28;20040;-75
2021/04/08 12:13:02;;;;;;;4.18;1.90;;;9.60;63.40;;;;;;5095439;28;20035;-75
2021/04/08 12:15:36;;;;;;;3.28;1.60;;;9.50;63.30;;;;;;5113640;28;20046;-76
2021/04/08 12:18:09;;;;;;;4.88;2.10;;;9.50;63.10;;;;;;5113486;28;20366;-75
2021/04/08 12:20:36;;;;;;;2.88;1.77;;;9.50;62.90;;;;;;5078666;28;20044;-74
2021/04/08 12:23:12;;;;;;;4.65;2.00;;;9.50;62.80;;;;;;5095488;28;20031;-75
2021/04/08 12:25:57;;;;;;;4.68;2.17;;;9.50;62.80;;;;;;5095457;28;20035;-75
2021/04/08 12:28:24;;;;;;;3.08;2.00;;;9.60;62.30;;;;;;5113311;28;20369;-76
2021/04/08 12:30:57;;;;;;;3.67;1.50;;;9.60;62.50;;;;;;5113205;28;20088;-75
2021/04/08 12:33:25;;;;;;;4.20;1.95;;;9.60;62.10;;;;;;5095805;28;20024;-74
2021/04/08 12:35:51;;;;;;;4.25;1.65;;;9.70;64.90;;;;;;5113660;28;20553;-75
2021/04/08 12:38:17;;;;;;;2.85;1.38;;;9.80;64.20;;;;;;5113101;28;20496;-75
2021/04/08 12:40:45;;;;;;;3.88;1.52;;;9.80;63.30;;;;;;5095016;28;20051;-73
2021/04/08 12:43:11;;;;;;;2.47;1.50;;;9.80;62.30;;;;;;5113224;28;20039;-74
2021/04/08 12:45:37;;;;;;;2.72;1.50;;;9.90;62.10;;;;;;5113715;28;20566;-74
2021/04/08 12:48:04;;;;;;;4.07;1.80;;;9.90;61.50;;;;;;5113198;28;20118;-75
2021/04/08 12:50:30;;;;;;;3.20;1.48;;;10.00;61.20;;;;;;5095413;28;20047;-76
2021/04/08 12:52:55;;;;;;;4.68;1.90;;;10.00;61.00;;;;;;5113100;28;20035;-76
2021/04/08 12:55:25;;;;;;;5.93;1.88;;;10.00;60.70;;;;;;5112724;28;20035;-72
2021/04/08 12:57:54;;;;;;;3.65;1.55;;;10.10;60.40;;;;;;5094726;28;20533;-73
2021/04/08 13:00:20;;;;;;;3.05;1.27;;;10.10;60.10;;;;;;5112885;28;20420;-73